sensor_id;sensor_type;location;lat;lon;timestamp;P1;durP1;ratioP1;P2;durP2;ratioP2
21412;SDS011;10867;45.084;5.732;2022-08-19T00:01:32;7.43;;;5.13;;
21412;SDS011;10867;45.084;5.732;2022-08-19T00:04:00;7.75;;;6.80;;
21412;SDS011;10867;45.084;5.732;2022-08-19T00:06:29;7.00;;;6.18;;
21412;SDS011;10867;45.084;5.732;2022-08-19T00:08:57;5.75;;;5.07;;
21412;SDS011;10867;45.084;5.732;2022-08-19T00:11:25;8.02;;;7.28;;
21412;SDS011;10867;45.084;5.732;2022-08-19T00:13:53;6.68;;;6.00;;
21412;SDS011;10867;45.084;5.732;2022-08-19T00:16:19;6.90;;;6.20;;
21412;SDS011;10867;45.084;5.732;2022-08-19T00:18:47;7.25;;;6.57;;
21412;SDS011;10867;45.084;5.732;2022-08-19T00:21:13;8.85;;;7.75;;
21412;SDS011;10867;45.084;5.732;2022-08-19T00:23:40;8.25;;;7.45;;
21412;SDS011;10867;45.084;5.732;2022-08-19T00:26:07;6.57;;;6.05;;
21412;SDS011;10867;45.084;5.732;2022-08-19T00:28:33;5.65;;;5.07;;
21412;SDS011;10867;45.084;5.732;2022-08-19T00:31:03;6.13;;;5.50;;
21412;SDS011;10867;45.084;5.732;2022-08-19T00:33:33;5.30;;;4.85;;
21412;SDS011;10867;45.084;5.732;2022-08-19T00:36:00;10.10;;;9.20;;
21412;SDS011;10867;45.084;5.732;2022-08-19T00:38:26;9.68;;;8.32;;
21412;SDS011;10867;45.084;5.732;2022-08-19T00:40:56;10.30;;;9.30;;
21412;SDS011;10867;45.084;5.732;2022-08-19T00:43:23;8.87;;;8.17;;
21412;SDS011;10867;45.084;5.732;2022-08-19T00:45:53;7.18;;;6.20;;
21412;SDS011;10867;45.084;5.732;2022-08-19T00:48:19;5.82;;;4.47;;
21412;SDS011;10867;45.084;5.732;2022-08-19T00:50:47;4.80;;;4.10;;
21412;SDS011;10867;45.084;5.732;2022-08-19T00:53:14;7.80;;;4.70;;
21412;SDS011;10867;45.084;5.732;2022-08-19T00:55:43;5.00;;;4.45;;
21412;SDS011;10867;45.084;5.732;2022-08-19T00:58:13;5.22;;;4.30;;
21412;SDS011;10867;45.084;5.732;2022-08-19T01:00:40;4.72;;;4.20;;
21412;SDS011;10867;45.084;5.732;2022-08-19T01:03:07;5.05;;;4.40;;
21412;SDS011;10867;45.084;5.732;2022-08-19T01:05:36;5.03;;;4.20;;
21412;SDS011;10867;45.084;5.732;2022-08-19T01:08:03;5.38;;;4.10;;
21412;SDS011;10867;45.084;5.732;2022-08-19T01:10:33;6.07;;;4.18;;
21412;SDS011;10867;45.084;5.732;2022-08-19T01:12:59;6.63;;;4.57;;
21412;SDS011;10867;45.084;5.732;2022-08-19T01:15:29;5.20;;;4.70;;
21412;SDS011;10867;45.084;5.732;2022-08-19T01:18:00;4.70;;;4.30;;
21412;SDS011;10867;45.084;5.732;2022-08-19T01:20:27;5.28;;;4.78;;
21412;SDS011;10867;45.084;5.732;2022-08-19T01:22:54;5.85;;;5.25;;
21412;SDS011;10867;45.084;5.732;2022-08-19T01:25:28;6.10;;;5.45;;
21412;SDS011;10867;45.084;5.732;2022-08-19T01:27:55;6.23;;;5.50;;
21412;SDS011;10867;45.084;5.732;2022-08-19T01:30:24;6.00;;;5.30;;
21412;SDS011;10867;45.084;5.732;2022-08-19T01:32:51;5.75;;;5.25;;
21412;SDS011;10867;45.084;5.732;2022-08-19T01:35:18;8.37;;;7.20;;
21412;SDS011;10867;45.084;5.732;2022-08-19T01:37:45;8.83;;;8.03;;
21412;SDS011;10867;45.084;5.732;2022-08-19T01:40:11;6.07;;;5.07;;
21412;SDS011;10867;45.084;5.732;2022-08-19T01:42:38;3.95;;;3.47;;
21412;SDS011;10867;45.084;5.732;2022-08-19T01:45:07;4.72;;;3.50;;
21412;SDS011;10867;45.084;5.732;2022-08-19T01:47:34;4.07;;;3.00;;
21412;SDS011;10867;45.084;5.732;2022-08-19T01:50:01;3.88;;;3.47;;
21412;SDS011;10867;45.084;5.732;2022-08-19T01:52:27;3.95;;;3.28;;
21412;SDS011;10867;45.084;5.732;2022-08-19T01:54:53;4.17;;;3.27;;
21412;SDS011;10867;45.084;5.732;2022-08-19T01:57:19;4.38;;;3.60;;
21412;SDS011;10867;45.084;5.732;2022-08-19T01:59:45;4.22;;;3.30;;
21412;SDS011;10867;45.084;5.732;2022-08-19T02:02:12;4.68;;;3.70;;
21412;SDS011;10867;45.084;5.732;2022-08-19T02:04:38;5.00;;;4.35;;
21412;SDS011;10867;45.084;5.732;2022-08-19T02:07:05;4.45;;;3.45;;
21412;SDS011;10867;45.084;5.732;2022-08-19T02:09:33;3.60;;;3.10;;
21412;SDS011;10867;45.084;5.732;2022-08-19T02:11:59;3.60;;;3.30;;
21412;SDS011;10867;45.084;5.732;2022-08-19T02:14:25;5.50;;;4.83;;
21412;SDS011;10867;45.084;5.732;2022-08-19T02:16:52;5.10;;;4.60;;
21412;SDS011;10867;45.084;5.732;2022-08-19T02:19:18;7.32;;;5.20;;
21412;SDS011;10867;45.084;5.732;2022-08-19T02:21:44;5.38;;;4.95;;
21412;SDS011;10867;45.084;5.732;2022-08-19T02:24:19;5.00;;;4.60;;
21412;SDS011;10867;45.084;5.732;2022-08-19T02:26:45;5.75;;;5.25;;
21412;SDS011;10867;45.084;5.732;2022-08-19T02:29:12;5.00;;;4.50;;
21412;SDS011;10867;45.084;5.732;2022-08-19T02:31:38;6.03;;;5.00;;
21412;SDS011;10867;45.084;5.732;2022-08-19T02:34:04;5.90;;;5.40;;
21412;SDS011;10867;45.084;5.732;2022-08-19T02:36:39;5.88;;;5.38;;
21412;SDS011;10867;45.084;5.732;2022-08-19T02:39:05;5.78;;;5.28;;
21412;SDS011;10867;45.084;5.732;2022-08-19T02:41:32;6.32;;;5.72;;
21412;SDS011;10867;45.084;5.732;2022-08-19T02:43:59;5.47;;;4.97;;
21412;SDS011;10867;45.084;5.732;2022-08-19T02:46:27;5.03;;;4.53;;
21412;SDS011;10867;45.084;5.732;2022-08-19T02:48:56;5.30;;;4.80;;
21412;SDS011;10867;45.084;5.732;2022-08-19T02:51:29;5.53;;;4.97;;
21412;SDS011;10867;45.084;5.732;2022-08-19T02:53:56;6.43;;;5.80;;
21412;SDS011;10867;45.084;5.732;2022-08-19T02:56:23;6.35;;;5.75;;
21412;SDS011;10867;45.084;5.732;2022-08-19T02:58:52;5.60;;;5.10;;
21412;SDS011;10867;45.084;5.732;2022-08-19T03:01:20;6.13;;;5.63;;
21412;SDS011;10867;45.084;5.732;2022-08-19T03:03:46;6.00;;;5.38;;
21412;SDS011;10867;45.084;5.732;2022-08-19T03:06:13;5.88;;;5.03;;
21412;SDS011;10867;45.084;5.732;2022-08-19T03:08:41;5.85;;;5.20;;
21412;SDS011;10867;45.084;5.732;2022-08-19T03:11:17;5.07;;;4.57;;
21412;SDS011;10867;45.084;5.732;2022-08-19T03:13:44;5.57;;;4.57;;
21412;SDS011;10867;45.084;5.732;2022-08-19T03:16:11;4.65;;;3.90;;
21412;SDS011;10867;45.084;5.732;2022-08-19T03:18:38;4.55;;;3.65;;
21412;SDS011;10867;45.084;5.732;2022-08-19T03:21:04;4.70;;;3.77;;
21412;SDS011;10867;45.084;5.732;2022-08-19T03:23:30;2.85;;;2.65;;
21412;SDS011;10867;45.084;5.732;2022-08-19T03:25:57;5.63;;;2.90;;
21412;SDS011;10867;45.084;5.732;2022-08-19T03:28:26;3.22;;;2.78;;
21412;SDS011;10867;45.084;5.732;2022-08-19T03:31:00;3.33;;;3.00;;
21412;SDS011;10867;45.084;5.732;2022-08-19T03:33:27;3.72;;;3.20;;
21412;SDS011;10867;45.084;5.732;2022-08-19T03:36:03;3.42;;;2.85;;
21412;SDS011;10867;45.084;5.732;2022-08-19T03:38:32;3.55;;;3.13;;
21412;SDS011;10867;45.084;5.732;2022-08-19T03:41:04;5.00;;;4.60;;
21412;SDS011;10867;45.084;5.732;2022-08-19T03:43:37;4.83;;;4.43;;
21412;SDS011;10867;45.084;5.732;2022-08-19T03:46:04;4.60;;;4.20;;
21412;SDS011;10867;45.084;5.732;2022-08-19T03:48:37;4.40;;;3.80;;
21412;SDS011;10867;45.084;5.732;2022-08-19T03:51:03;4.03;;;3.47;;
21412;SDS011;10867;45.084;5.732;2022-08-19T03:53:30;4.45;;;3.75;;
21412;SDS011;10867;45.084;5.732;2022-08-19T03:55:59;4.30;;;3.50;;
21412;SDS011;10867;45.084;5.732;2022-08-19T03:58:32;4.32;;;3.92;;
21412;SDS011;10867;45.084;5.732;2022-08-19T04:00:58;7.30;;;5.07;;
21412;SDS011;10867;45.084;5.732;2022-08-19T04:03:25;6.63;;;6.03;;
21412;SDS011;10867;45.084;5.732;2022-08-19T04:05:52;7.97;;;7.27;;
21412;SDS011;10867;45.084;5.732;2022-08-19T04:08:19;6.68;;;6.18;;
21412;SDS011;10867;45.084;5.732;2022-08-19T04:10:47;6.10;;;5.10;;
21412;SDS011;10867;45.084;5.732;2022-08-19T04:13:14;5.32;;;4.82;;
21412;SDS011;10867;45.084;5.732;2022-08-19T04:15:41;5.73;;;5.23;;
21412;SDS011;10867;45.084;5.732;2022-08-19T04:18:08;5.65;;;4.45;;
21412;SDS011;10867;45.084;5.732;2022-08-19T04:20:39;5.13;;;4.57;;
21412;SDS011;10867;45.084;5.732;2022-08-19T04:23:06;5.97;;;5.38;;
21412;SDS011;10867;45.084;5.732;2022-08-19T04:25:39;8.50;;;5.88;;
21412;SDS011;10867;45.084;5.732;2022-08-19T04:28:07;5.82;;;5.32;;
21412;SDS011;10867;45.084;5.732;2022-08-19T04:30:41;5.68;;;5.15;;
21412;SDS011;10867;45.084;5.732;2022-08-19T04:33:08;5.83;;;5.10;;
21412;SDS011;10867;45.084;5.732;2022-08-19T04:35:36;6.13;;;5.10;;
21412;SDS011;10867;45.084;5.732;2022-08-19T04:38:02;6.78;;;3.50;;
21412;SDS011;10867;45.084;5.732;2022-08-19T04:40:29;6.00;;;4.87;;
21412;SDS011;10867;45.084;5.732;2022-08-19T04:43:13;5.72;;;4.50;;
21412;SDS011;10867;45.084;5.732;2022-08-19T04:45:41;6.93;;;4.53;;
21412;SDS011;10867;45.084;5.732;2022-08-19T04:48:08;5.85;;;4.47;;
21412;SDS011;10867;45.084;5.732;2022-08-19T04:50:38;5.50;;;3.05;;
21412;SDS011;10867;45.084;5.732;2022-08-19T04:53:05;4.67;;;3.10;;
21412;SDS011;10867;45.084;5.732;2022-08-19T04:55:31;3.25;;;2.30;;
21412;SDS011;10867;45.084;5.732;2022-08-19T04:57:57;2.90;;;2.40;;
21412;SDS011;10867;45.084;5.732;2022-08-19T05:00:24;3.10;;;2.85;;
21412;SDS011;10867;45.084;5.732;2022-08-19T05:02:53;4.90;;;4.28;;
21412;SDS011;10867;45.084;5.732;2022-08-19T05:05:19;5.45;;;4.90;;
21412;SDS011;10867;45.084;5.732;2022-08-19T05:07:45;4.57;;;4.07;;
21412;SDS011;10867;45.084;5.732;2022-08-19T05:10:12;5.10;;;3.70;;
21412;SDS011;10867;45.084;5.732;2022-08-19T05:12:38;5.43;;;4.40;;
21412;SDS011;10867;45.084;5.732;2022-08-19T05:15:05;3.70;;;3.30;;
21412;SDS011;10867;45.084;5.732;2022-08-19T05:17:40;4.00;;;2.80;;
21412;SDS011;10867;45.084;5.732;2022-08-19T05:20:49;3.10;;;2.80;;
21412;SDS011;10867;45.084;5.732;2022-08-19T05:23:34;3.50;;;2.97;;
21412;SDS011;10867;45.084;5.732;2022-08-19T05:26:00;3.00;;;2.70;;
21412;SDS011;10867;45.084;5.732;2022-08-19T05:28:29;3.53;;;3.13;;
21412;SDS011;10867;45.084;5.732;2022-08-19T05:30:55;3.00;;;2.80;;
21412;SDS011;10867;45.084;5.732;2022-08-19T05:33:22;3.20;;;2.90;;
21412;SDS011;10867;45.084;5.732;2022-08-19T05:35:57;3.50;;;3.20;;
21412;SDS011;10867;45.084;5.732;2022-08-19T05:38:23;3.30;;;2.92;;
21412;SDS011;10867;45.084;5.732;2022-08-19T05:40:52;4.20;;;3.00;;
21412;SDS011;10867;45.084;5.732;2022-08-19T05:43:21;3.47;;;3.17;;
21412;SDS011;10867;45.084;5.732;2022-08-19T05:45:50;3.35;;;3.05;;
21412;SDS011;10867;45.084;5.732;2022-08-19T05:48:34;3.13;;;2.85;;
21412;SDS011;10867;45.084;5.732;2022-08-19T05:51:05;3.40;;;2.92;;
21412;SDS011;10867;45.084;5.732;2022-08-19T05:53:32;3.53;;;3.10;;
21412;SDS011;10867;45.084;5.732;2022-08-19T05:56:03;4.30;;;3.25;;
21412;SDS011;10867;45.084;5.732;2022-08-19T05:58:29;3.42;;;3.13;;
21412;SDS011;10867;45.084;5.732;2022-08-19T06:00:56;3.50;;;3.20;;
21412;SDS011;10867;45.084;5.732;2022-08-19T06:03:22;3.33;;;3.03;;
21412;SDS011;10867;45.084;5.732;2022-08-19T06:05:55;3.13;;;2.83;;
21412;SDS011;10867;45.084;5.732;2022-08-19T06:08:26;3.10;;;2.50;;
21412;SDS011;10867;45.084;5.732;2022-08-19T06:14:00;2.95;;;2.47;;
21412;SDS011;10867;45.084;5.732;2022-08-19T06:16:29;2.60;;;2.20;;
21412;SDS011;10867;45.084;5.732;2022-08-19T06:19:00;2.63;;;2.42;;
21412;SDS011;10867;45.084;5.732;2022-08-19T06:21:27;2.40;;;2.20;;
21412;SDS011;10867;45.084;5.732;2022-08-19T06:23:55;2.80;;;2.60;;
21412;SDS011;10867;45.084;5.732;2022-08-19T06:26:24;3.67;;;2.50;;
21412;SDS011;10867;45.084;5.732;2022-08-19T06:28:52;3.22;;;2.70;;
21412;SDS011;10867;45.084;5.732;2022-08-19T06:31:19;2.78;;;2.58;;
21412;SDS011;10867;45.084;5.732;2022-08-19T06:33:47;2.78;;;2.42;;
21412;SDS011;10867;45.084;5.732;2022-08-19T06:36:21;2.53;;;2.33;;
21412;SDS011;10867;45.084;5.732;2022-08-19T06:38:53;2.40;;;2.20;;
21412;SDS011;10867;45.084;5.732;2022-08-19T06:41:20;3.42;;;2.30;;
21412;SDS011;10867;45.084;5.732;2022-08-19T06:43:46;2.92;;;2.50;;
21412;SDS011;10867;45.084;5.732;2022-08-19T06:46:14;2.40;;;2.20;;
21412;SDS011;10867;45.084;5.732;2022-08-19T06:48:41;2.40;;;2.20;;
21412;SDS011;10867;45.084;5.732;2022-08-19T06:51:07;2.55;;;2.35;;
21412;SDS011;10867;45.084;5.732;2022-08-19T06:53:33;2.40;;;2.20;;
21412;SDS011;10867;45.084;5.732;2022-08-19T06:56:00;2.70;;;2.50;;
21412;SDS011;10867;45.084;5.732;2022-08-19T06:58:29;2.70;;;2.40;;
21412;SDS011;10867;45.084;5.732;2022-08-19T07:00:59;2.95;;;2.20;;
21412;SDS011;10867;45.084;5.732;2022-08-19T07:03:28;3.60;;;2.40;;
21412;SDS011;10867;45.084;5.732;2022-08-19T07:05:55;2.80;;;2.40;;
21412;SDS011;10867;45.084;5.732;2022-08-19T07:08:21;3.10;;;2.80;;
21412;SDS011;10867;45.084;5.732;2022-08-19T07:10:47;3.40;;;3.10;;
21412;SDS011;10867;45.084;5.732;2022-08-19T07:13:14;4.28;;;3.35;;
21412;SDS011;10867;45.084;5.732;2022-08-19T07:15:40;3.70;;;2.97;;
21412;SDS011;10867;45.084;5.732;2022-08-19T07:18:06;3.10;;;2.80;;
21412;SDS011;10867;45.084;5.732;2022-08-19T07:20:32;3.35;;;2.60;;
21412;SDS011;10867;45.084;5.732;2022-08-19T07:22:58;5.85;;;2.78;;
21412;SDS011;10867;45.084;5.732;2022-08-19T07:25:24;2.97;;;2.50;;
21412;SDS011;10867;45.084;5.732;2022-08-19T07:27:52;3.20;;;2.90;;
21412;SDS011;10867;45.084;5.732;2022-08-19T07:30:18;2.72;;;2.53;;
21412;SDS011;10867;45.084;5.732;2022-08-19T07:32:44;2.72;;;2.50;;
21412;SDS011;10867;45.084;5.732;2022-08-19T07:35:10;2.40;;;2.10;;
21412;SDS011;10867;45.084;5.732;2022-08-19T07:37:36;3.42;;;2.45;;
21412;SDS011;10867;45.084;5.732;2022-08-19T07:40:05;3.08;;;2.47;;
21412;SDS011;10867;45.084;5.732;2022-08-19T07:42:31;4.03;;;3.60;;
21412;SDS011;10867;45.084;5.732;2022-08-19T07:44:57;3.85;;;3.45;;
21412;SDS011;10867;45.084;5.732;2022-08-19T07:47:24;5.43;;;4.30;;
21412;SDS011;10867;45.084;5.732;2022-08-19T07:49:50;3.78;;;3.47;;
21412;SDS011;10867;45.084;5.732;2022-08-19T07:52:16;3.45;;;2.35;;
21412;SDS011;10867;45.084;5.732;2022-08-19T07:54:42;4.78;;;4.38;;
21412;SDS011;10867;45.084;5.732;2022-08-19T07:57:08;3.47;;;2.50;;
21412;SDS011;10867;45.084;5.732;2022-08-19T07:59:35;3.13;;;2.27;;
21412;SDS011;10867;45.084;5.732;2022-08-19T08:02:01;2.65;;;2.28;;
21412;SDS011;10867;45.084;5.732;2022-08-19T08:04:28;2.10;;;1.90;;
21412;SDS011;10867;45.084;5.732;2022-08-19T08:07:13;2.97;;;1.90;;
21412;SDS011;10867;45.084;5.732;2022-08-19T08:09:58;2.97;;;2.22;;
21412;SDS011;10867;45.084;5.732;2022-08-19T08:12:30;2.90;;;2.30;;
21412;SDS011;10867;45.084;5.732;2022-08-19T08:14:57;2.60;;;2.00;;
21412;SDS011;10867;45.084;5.732;2022-08-19T08:17:25;2.45;;;2.25;;
21412;SDS011;10867;45.084;5.732;2022-08-19T08:19:51;2.42;;;2.22;;
21412;SDS011;10867;45.084;5.732;2022-08-19T08:22:18;2.70;;;2.50;;
21412;SDS011;10867;45.084;5.732;2022-08-19T08:25:07;3.08;;;2.88;;
21412;SDS011;10867;45.084;5.732;2022-08-19T08:27:38;3.78;;;3.38;;
21412;SDS011;10867;45.084;5.732;2022-08-19T08:30:12;4.22;;;2.42;;
21412;SDS011;10867;45.084;5.732;2022-08-19T08:32:39;2.88;;;2.60;;
21412;SDS011;10867;45.084;5.732;2022-08-19T08:35:07;3.65;;;3.00;;
21412;SDS011;10867;45.084;5.732;2022-08-19T08:37:33;3.13;;;2.83;;
21412;SDS011;10867;45.084;5.732;2022-08-19T08:40:04;2.72;;;2.42;;
21412;SDS011;10867;45.084;5.732;2022-08-19T08:42:32;2.72;;;2.13;;
21412;SDS011;10867;45.084;5.732;2022-08-19T08:45:09;2.80;;;2.60;;
21412;SDS011;10867;45.084;5.732;2022-08-19T08:47:38;3.17;;;2.40;;
21412;SDS011;10867;45.084;5.732;2022-08-19T08:52:51;2.97;;;2.05;;
21412;SDS011;10867;45.084;5.732;2022-08-19T08:55:23;2.40;;;2.20;;
21412;SDS011;10867;45.084;5.732;2022-08-19T08:57:59;3.65;;;2.00;;
21412;SDS011;10867;45.084;5.732;2022-08-19T09:00:30;3.20;;;2.13;;
21412;SDS011;10867;45.084;5.732;2022-08-19T09:02:58;2.70;;;2.00;;
21412;SDS011;10867;45.084;5.732;2022-08-19T09:05:41;3.23;;;2.13;;
21412;SDS011;10867;45.084;5.732;2022-08-19T09:08:20;2.40;;;1.88;;
21412;SDS011;10867;45.084;5.732;2022-08-19T09:10:49;2.03;;;1.92;;
21412;SDS011;10867;45.084;5.732;2022-08-19T09:13:27;2.35;;;2.15;;
21412;SDS011;10867;45.084;5.732;2022-08-19T09:15:58;2.05;;;1.92;;
21412;SDS011;10867;45.084;5.732;2022-08-19T09:18:37;2.70;;;2.03;;
21412;SDS011;10867;45.084;5.732;2022-08-19T09:21:04;2.63;;;2.00;;
21412;SDS011;10867;45.084;5.732;2022-08-19T09:23:30;1.97;;;1.80;;
21412;SDS011;10867;45.084;5.732;2022-08-19T09:25:56;2.40;;;2.20;;
21412;SDS011;10867;45.084;5.732;2022-08-19T09:28:22;3.05;;;2.03;;
21412;SDS011;10867;45.084;5.732;2022-08-19T09:30:48;2.38;;;2.17;;
21412;SDS011;10867;45.084;5.732;2022-08-19T09:33:14;2.30;;;2.10;;
21412;SDS011;10867;45.084;5.732;2022-08-19T09:35:41;2.35;;;2.13;;
21412;SDS011;10867;45.084;5.732;2022-08-19T09:38:07;2.77;;;2.50;;
21412;SDS011;10867;45.084;5.732;2022-08-19T09:40:33;2.47;;;2.28;;
21412;SDS011;10867;45.084;5.732;2022-08-19T09:43:00;2.53;;;2.33;;
21412;SDS011;10867;45.084;5.732;2022-08-19T09:45:27;2.90;;;2.50;;
21412;SDS011;10867;45.084;5.732;2022-08-19T09:47:54;2.95;;;2.58;;
21412;SDS011;10867;45.084;5.732;2022-08-19T09:50:21;2.65;;;2.28;;
21412;SDS011;10867;45.084;5.732;2022-08-19T09:52:47;2.80;;;2.13;;
21412;SDS011;10867;45.084;5.732;2022-08-19T09:55:13;2.33;;;2.13;;
21412;SDS011;10867;45.084;5.732;2022-08-19T09:57:41;2.90;;;2.35;;
21412;SDS011;10867;45.084;5.732;2022-08-19T10:00:08;3.13;;;2.47;;
21412;SDS011;10867;45.084;5.732;2022-08-19T10:02:35;2.70;;;2.20;;
21412;SDS011;10867;45.084;5.732;2022-08-19T10:05:01;2.63;;;2.43;;
21412;SDS011;10867;45.084;5.732;2022-08-19T10:07:45;2.50;;;2.30;;
21412;SDS011;10867;45.084;5.732;2022-08-19T10:10:11;2.60;;;2.40;;
21412;SDS011;10867;45.084;5.732;2022-08-19T10:12:38;4.03;;;3.00;;
21412;SDS011;10867;45.084;5.732;2022-08-19T10:15:05;2.60;;;2.40;;
21412;SDS011;10867;45.084;5.732;2022-08-19T10:17:31;3.10;;;2.58;;
21412;SDS011;10867;45.084;5.732;2022-08-19T10:19:59;2.80;;;2.60;;
21412;SDS011;10867;45.084;5.732;2022-08-19T10:22:27;3.05;;;2.70;;
21412;SDS011;10867;45.084;5.732;2022-08-19T10:24:53;4.40;;;2.65;;
21412;SDS011;10867;45.084;5.732;2022-08-19T10:27:19;2.85;;;2.60;;
21412;SDS011;10867;45.084;5.732;2022-08-19T10:29:46;5.25;;;2.65;;
21412;SDS011;10867;45.084;5.732;2022-08-19T10:32:13;2.90;;;2.70;;
21412;SDS011;10867;45.084;5.732;2022-08-19T10:34:39;3.20;;;2.90;;
21412;SDS011;10867;45.084;5.732;2022-08-19T10:37:06;2.83;;;2.63;;
21412;SDS011;10867;45.084;5.732;2022-08-19T10:39:33;3.10;;;2.80;;
21412;SDS011;10867;45.084;5.732;2022-08-19T10:42:03;3.60;;;3.30;;
21412;SDS011;10867;45.084;5.732;2022-08-19T10:44:30;3.42;;;3.13;;
21412;SDS011;10867;45.084;5.732;2022-08-19T10:46:57;3.13;;;2.83;;
21412;SDS011;10867;45.084;5.732;2022-08-19T10:49:24;3.40;;;2.70;;
21412;SDS011;10867;45.084;5.732;2022-08-19T10:51:50;4.22;;;2.90;;
21412;SDS011;10867;45.084;5.732;2022-08-19T10:54:34;3.05;;;2.75;;
21412;SDS011;10867;45.084;5.732;2022-08-19T10:57:19;3.00;;;2.70;;
21412;SDS011;10867;45.084;5.732;2022-08-19T10:59:49;3.40;;;3.10;;
21412;SDS011;10867;45.084;5.732;2022-08-19T11:02:15;3.33;;;3.10;;
21412;SDS011;10867;45.084;5.732;2022-08-19T11:04:50;3.13;;;2.92;;
21412;SDS011;10867;45.084;5.732;2022-08-19T11:07:19;3.40;;;3.10;;
21412;SDS011;10867;45.084;5.732;2022-08-19T11:09:46;3.95;;;3.13;;
21412;SDS011;10867;45.084;5.732;2022-08-19T11:12:27;3.50;;;3.20;;
21412;SDS011;10867;45.084;5.732;2022-08-19T11:15:04;3.92;;;3.00;;
21412;SDS011;10867;45.084;5.732;2022-08-19T11:17:36;3.60;;;3.30;;
21412;SDS011;10867;45.084;5.732;2022-08-19T11:20:09;3.55;;;3.25;;
21412;SDS011;10867;45.084;5.732;2022-08-19T11:22:37;3.38;;;3.10;;
21412;SDS011;10867;45.084;5.732;2022-08-19T11:25:12;5.18;;;3.45;;
21412;SDS011;10867;45.084;5.732;2022-08-19T11:27:39;3.60;;;3.30;;
21412;SDS011;10867;45.084;5.732;2022-08-19T11:30:13;5.00;;;3.60;;
21412;SDS011;10867;45.084;5.732;2022-08-19T11:33:01;3.43;;;3.13;;
21412;SDS011;10867;45.084;5.732;2022-08-19T11:35:32;3.83;;;3.53;;
21412;SDS011;10867;45.084;5.732;2022-08-19T11:37:58;3.78;;;3.35;;
21412;SDS011;10867;45.084;5.732;2022-08-19T11:43:46;3.30;;;3.10;;
21412;SDS011;10867;45.084;5.732;2022-08-19T11:46:13;3.63;;;3.30;;
21412;SDS011;10867;45.084;5.732;2022-08-19T11:48:40;3.72;;;3.10;;
21412;SDS011;10867;45.084;5.732;2022-08-19T11:51:12;3.75;;;3.45;;
21412;SDS011;10867;45.084;5.732;2022-08-19T11:57:02;3.65;;;3.25;;
21412;SDS011;10867;45.084;5.732;2022-08-19T11:59:39;3.65;;;3.22;;
21412;SDS011;10867;45.084;5.732;2022-08-19T12:02:44;3.47;;;3.17;;
21412;SDS011;10867;45.084;5.732;2022-08-19T12:23:04;8.07;;;4.47;;
21412;SDS011;10867;45.084;5.732;2022-08-19T12:36:21;3.15;;;2.85;;
21412;SDS011;10867;45.084;5.732;2022-08-19T12:42:21;5.60;;;4.00;;
21412;SDS011;10867;45.084;5.732;2022-08-19T12:45:20;3.83;;;3.50;;
21412;SDS011;10867;45.084;5.732;2022-08-19T12:47:42;3.90;;;3.60;;
21412;SDS011;10867;45.084;5.732;2022-08-19T12:50:08;6.05;;;3.60;;
21412;SDS011;10867;45.084;5.732;2022-08-19T12:52:35;4.90;;;4.03;;
21412;SDS011;10867;45.084;5.732;2022-08-19T12:59:01;4.57;;;4.17;;
21412;SDS011;10867;45.084;5.732;2022-08-19T13:01:32;4.53;;;4.13;;
21412;SDS011;10867;45.084;5.732;2022-08-19T13:03:58;4.82;;;4.18;;
21412;SDS011;10867;45.084;5.732;2022-08-19T13:06:27;4.65;;;4.07;;
21412;SDS011;10867;45.084;5.732;2022-08-19T13:09:02;5.07;;;4.30;;
21412;SDS011;10867;45.084;5.732;2022-08-19T13:11:34;4.10;;;3.60;;
21412;SDS011;10867;45.084;5.732;2022-08-19T13:14:05;4.00;;;3.60;;
21412;SDS011;10867;45.084;5.732;2022-08-19T13:16:38;4.45;;;3.97;;
21412;SDS011;10867;45.084;5.732;2022-08-19T13:19:05;5.82;;;5.32;;
21412;SDS011;10867;45.084;5.732;2022-08-19T13:21:39;6.38;;;5.82;;
21412;SDS011;10867;45.084;5.732;2022-08-19T13:24:06;7.55;;;6.85;;
21412;SDS011;10867;45.084;5.732;2022-08-19T13:26:42;7.60;;;6.88;;
21412;SDS011;10867;45.084;5.732;2022-08-19T13:29:15;8.50;;;7.80;;
21412;SDS011;10867;45.084;5.732;2022-08-19T13:32:02;7.80;;;7.10;;
21412;SDS011;10867;45.084;5.732;2022-08-19T13:35:10;8.60;;;7.80;;
21412;SDS011;10867;45.084;5.732;2022-08-19T13:37:40;8.85;;;7.97;;
21412;SDS011;10867;45.084;5.732;2022-08-19T13:42:42;9.98;;;8.98;;
21412;SDS011;10867;45.084;5.732;2022-08-19T13:51:46;10.60;;;9.50;;
21412;SDS011;10867;45.084;5.732;2022-08-19T14:01:07;9.70;;;8.70;;
21412;SDS011;10867;45.084;5.732;2022-08-19T14:06:25;10.03;;;9.03;;
21412;SDS011;10867;45.084;5.732;2022-08-19T14:18:20;10.55;;;9.50;;
21412;SDS011;10867;45.084;5.732;2022-08-19T14:20:46;9.07;;;8.10;;
21412;SDS011;10867;45.084;5.732;2022-08-19T14:23:13;9.47;;;8.57;;
21412;SDS011;10867;45.084;5.732;2022-08-19T14:25:42;9.10;;;8.20;;
21412;SDS011;10867;45.084;5.732;2022-08-19T14:28:22;9.00;;;8.02;;
21412;SDS011;10867;45.084;5.732;2022-08-19T14:30:53;8.95;;;8.07;;
21412;SDS011;10867;45.084;5.732;2022-08-19T14:33:19;8.50;;;7.70;;
21412;SDS011;10867;45.084;5.732;2022-08-19T14:36:29;9.27;;;8.38;;
21412;SDS011;10867;45.084;5.732;2022-08-19T14:38:57;9.30;;;8.40;;
21412;SDS011;10867;45.084;5.732;2022-08-19T14:41:25;8.70;;;8.00;;
21412;SDS011;10867;45.084;5.732;2022-08-19T14:43:55;8.90;;;8.10;;
21412;SDS011;10867;45.084;5.732;2022-08-19T14:46:43;8.82;;;7.90;;
21412;SDS011;10867;45.084;5.732;2022-08-19T14:52:05;8.85;;;8.15;;
21412;SDS011;10867;45.084;5.732;2022-08-19T14:54:45;9.10;;;8.30;;
21412;SDS011;10867;45.084;5.732;2022-08-19T14:57:17;8.70;;;7.90;;
21412;SDS011;10867;45.084;5.732;2022-08-19T15:00:12;8.63;;;7.93;;
21412;SDS011;10867;45.084;5.732;2022-08-19T15:02:48;8.95;;;8.05;;
21412;SDS011;10867;45.084;5.732;2022-08-19T15:05:17;8.43;;;7.70;;
21412;SDS011;10867;45.084;5.732;2022-08-19T15:08:01;8.55;;;7.82;;
21412;SDS011;10867;45.084;5.732;2022-08-19T15:10:28;8.32;;;7.53;;
21412;SDS011;10867;45.084;5.732;2022-08-19T15:12:54;8.63;;;7.82;;
21412;SDS011;10867;45.084;5.732;2022-08-19T15:18:29;8.60;;;7.85;;
21412;SDS011;10867;45.084;5.732;2022-08-19T15:21:17;8.47;;;7.70;;
21412;SDS011;10867;45.084;5.732;2022-08-19T15:24:05;8.73;;;7.72;;
21412;SDS011;10867;45.084;5.732;2022-08-19T15:27:13;9.13;;;8.32;;
21412;SDS011;10867;45.084;5.732;2022-08-19T15:30:23;8.90;;;8.10;;
21412;SDS011;10867;45.084;5.732;2022-08-19T15:32:49;9.10;;;8.05;;
21412;SDS011;10867;45.084;5.732;2022-08-19T15:35:19;9.10;;;8.20;;
21412;SDS011;10867;45.084;5.732;2022-08-19T15:38:16;9.02;;;8.23;;
21412;SDS011;10867;45.084;5.732;2022-08-19T15:40:51;8.00;;;7.22;;
21412;SDS011;10867;45.084;5.732;2022-08-19T15:43:24;7.90;;;7.10;;
21412;SDS011;10867;45.084;5.732;2022-08-19T15:45:56;9.00;;;8.20;;
21412;SDS011;10867;45.084;5.732;2022-08-19T15:48:23;7.90;;;7.25;;
21412;SDS011;10867;45.084;5.732;2022-08-19T15:50:49;7.70;;;7.00;;
21412;SDS011;10867;45.084;5.732;2022-08-19T15:53:15;7.82;;;7.13;;
21412;SDS011;10867;45.084;5.732;2022-08-19T15:55:42;8.52;;;7.72;;
21412;SDS011;10867;45.084;5.732;2022-08-19T15:58:16;8.35;;;7.65;;
21412;SDS011;10867;45.084;5.732;2022-08-19T16:01:03;7.35;;;6.70;;
21412;SDS011;10867;45.084;5.732;2022-08-19T16:03:51;7.25;;;6.65;;
21412;SDS011;10867;45.084;5.732;2022-08-19T16:06:37;7.35;;;6.60;;
21412;SDS011;10867;45.084;5.732;2022-08-19T16:09:20;6.88;;;6.28;;
21412;SDS011;10867;45.084;5.732;2022-08-19T16:11:48;6.85;;;6.28;;
21412;SDS011;10867;45.084;5.732;2022-08-19T16:14:18;6.22;;;5.72;;
21412;SDS011;10867;45.084;5.732;2022-08-19T16:16:46;6.22;;;5.53;;
21412;SDS011;10867;45.084;5.732;2022-08-19T16:19:13;5.70;;;5.20;;
21412;SDS011;10867;45.084;5.732;2022-08-19T16:21:44;6.00;;;5.05;;
21412;SDS011;10867;45.084;5.732;2022-08-19T16:24:12;4.90;;;4.50;;
21412;SDS011;10867;45.084;5.732;2022-08-19T16:26:39;5.45;;;4.40;;
21412;SDS011;10867;45.084;5.732;2022-08-19T16:31:55;4.47;;;4.07;;